< Typhoon 200901 2009 Season Typhoon 200903 >
Typhoon 200902 (CHAN-HOM)
General InformationTrack Information on Google MapsDetailed Wind InformationAccess Analytics MapList of All Images || Disaster Info.WeblogTrackbackTyphoon FrontTyphoon ImaginationResourceGoogle EarthGE AnimationAtom FeedGeoJSON
Detalied Best Track (Time Zone = UTC)
Year Month Day Hour Lat. Long. Pressure (hPa) Wind (kt) Class Image Chart
2009 5 2 18 9.7 111.1 1006 0 2 Image Chart
2009 5 3 00 9.7 111.5 1004 0 2 Image Chart
2009 5 3 06 9.7 111.5 1004 0 2 Image Chart
2009 5 3 12 9.9 111.6 1000 35 3 Image Chart
2009 5 3 18 10.2 111.9 998 35 3 Image Chart
2009 5 4 00 10.5 112.2 996 35 3 Image Chart
2009 5 4 06 10.9 112.0 992 40 3 Image Chart
2009 5 4 12 11.2 111.7 990 45 3 Image Chart
2009 5 4 18 11.3 111.6 985 50 4 Image Chart
2009 5 5 00 11.5 111.7 980 55 4 Image Chart
2009 5 5 06 12.1 111.8 980 55 4 Image Chart
2009 5 5 12 12.7 112.1 980 55 4 Image Chart
2009 5 5 18 13.3 112.6 980 55 4 Image Chart
2009 5 6 00 13.6 113.1 980 55 4 Image Chart
2009 5 6 06 14.1 113.9 980 55 4 Image Chart
2009 5 6 12 14.4 114.6 975 60 4 Image Chart
2009 5 6 18 14.8 115.9 975 65 5 Image Chart
2009 5 7 00 15.3 117.3 975 65 5 Image Chart
2009 5 7 06 15.8 118.7 975 65 5 Image Chart
2009 5 7 12 16.4 120.2 985 55 4 Image Chart
2009 5 7 18 16.6 121.5 990 50 4 Image Chart
2009 5 8 00 16.5 123.4 990 50 4 Image Chart
2009 5 8 06 16.4 124.9 990 45 3 Image Chart
2009 5 8 12 16.7 126.3 992 40 3 Image Chart
2009 5 8 18 17.0 127.0 994 35 3 Image Chart
2009 5 9 00 17.2 127.5 998 0 2 Image Chart
2009 5 9 06 17.4 128.0 1000 0 2 Image Chart
2009 5 9 12 17.8 128.7 1002 0 2 Image Chart
2009 5 9 18 18.5 128.5 1004 0 2 Image Chart
2009 5 10 00 19.0 127.9 1006 0 2 Image Chart
2009 5 10 06 19.7 128.2 1006 0 2 Image Chart
2009 5 10 12 20.5 127.7 1006 0 2 Image Chart
2009 5 10 18 20.9 127.6 1006 0 2 Image Chart
2009 5 11 00 21.7 127.2 1006 0 2 Image Chart
2009 5 11 06 21.7 126.7 1006 0 2 Image Chart
2009 5 11 12 22.1 127.4 1008 0 2 Image Chart
2009 5 11 18 23.0 127.2 1008 0 2 Image Chart
2009 5 12 00 23.8 126.9 1010 0 2 Image Chart
2009 5 12 06 24.3 127.2 1008 0 2 Image Chart
2009 5 12 12 24.8 127.9 1008 0 2 Image Chart
2009 5 12 18 25.3 128.5 1008 0 2 Image Chart
2009 5 13 00 25.7 128.8 1008 0 2 Image Chart
Japan Meteorological Agency Best Track Data | Correction Date : 2009-06-12
< Typhoon 200901 2009 Season Typhoon 200903 >

Help